sensor_id;sensor_type;location;lat;lon;timestamp;temperature;humidity
13835;DHT22;6988;52.614;13.500;2022-10-16T00:01:33;14.30;99.90
13835;DHT22;6988;52.614;13.500;2022-10-16T00:06:27;14.30;99.90
13835;DHT22;6988;52.614;13.500;2022-10-16T00:11:21;14.30;99.90
13835;DHT22;6988;52.614;13.500;2022-10-16T00:16:15;14.30;99.90
13835;DHT22;6988;52.614;13.500;2022-10-16T00:21:11;14.40;99.90
13835;DHT22;6988;52.614;13.500;2022-10-16T00:26:06;14.40;99.90
13835;DHT22;6988;52.614;13.500;2022-10-16T00:30:59;14.50;99.90
13835;DHT22;6988;52.614;13.500;2022-10-16T00:35:57;14.60;99.90
13835;DHT22;6988;52.614;13.500;2022-10-16T00:40:52;14.60;99.90
13835;DHT22;6988;52.614;13.500;2022-10-16T00:45:44;14.60;99.90
13835;DHT22;6988;52.614;13.500;2022-10-16T00:50:36;14.70;99.90
13835;DHT22;6988;52.614;13.500;2022-10-16T00:55:29;14.80;99.90
13835;DHT22;6988;52.614;13.500;2022-10-16T01:00:24;14.80;99.90
13835;DHT22;6988;52.614;13.500;2022-10-16T01:05:17;14.90;99.90
13835;DHT22;6988;52.614;13.500;2022-10-16T01:10:17;14.90;99.90
13835;DHT22;6988;52.614;13.500;2022-10-16T01:15:25;15.00;99.90
13835;DHT22;6988;52.614;13.500;2022-10-16T01:20:26;15.10;99.90
13835;DHT22;6988;52.614;13.500;2022-10-16T01:25:27;15.20;99.90
13835;DHT22;6988;52.614;13.500;2022-10-16T01:30:30;15.20;99.90
13835;DHT22;6988;52.614;13.500;2022-10-16T01:35:27;15.30;99.90
13835;DHT22;6988;52.614;13.500;2022-10-16T01:40:26;15.30;99.90
13835;DHT22;6988;52.614;13.500;2022-10-16T01:45:20;15.20;99.90
13835;DHT22;6988;52.614;13.500;2022-10-16T01:50:16;15.20;99.90
13835;DHT22;6988;52.614;13.500;2022-10-16T01:55:15;15.30;99.90
13835;DHT22;6988;52.614;13.500;2022-10-16T02:00:13;15.30;99.90
13835;DHT22;6988;52.614;13.500;2022-10-16T02:05:14;15.30;99.90
13835;DHT22;6988;52.614;13.500;2022-10-16T02:10:11;15.30;99.90
13835;DHT22;6988;52.614;13.500;2022-10-16T02:15:03;15.30;99.90
13835;DHT22;6988;52.614;13.500;2022-10-16T02:19:56;15.30;99.90
13835;DHT22;6988;52.614;13.500;2022-10-16T02:24:56;15.30;99.90
13835;DHT22;6988;52.614;13.500;2022-10-16T02:29:53;15.40;99.90
13835;DHT22;6988;52.614;13.500;2022-10-16T02:34:49;15.40;99.90
13835;DHT22;6988;52.614;13.500;2022-10-16T02:39:42;15.30;99.90
13835;DHT22;6988;52.614;13.500;2022-10-16T02:44:36;15.30;99.90
13835;DHT22;6988;52.614;13.500;2022-10-16T02:49:27;15.40;99.90
13835;DHT22;6988;52.614;13.500;2022-10-16T02:54:19;15.40;99.90
13835;DHT22;6988;52.614;13.500;2022-10-16T02:59:11;15.30;99.90
13835;DHT22;6988;52.614;13.500;2022-10-16T03:04:04;15.30;99.90
13835;DHT22;6988;52.614;13.500;2022-10-16T03:08:56;15.30;99.90
13835;DHT22;6988;52.614;13.500;2022-10-16T03:13:47;15.30;99.90
13835;DHT22;6988;52.614;13.500;2022-10-16T03:18:39;15.30;99.90
13835;DHT22;6988;52.614;13.500;2022-10-16T03:23:32;15.20;99.90
13835;DHT22;6988;52.614;13.500;2022-10-16T03:28:24;15.20;99.90
13835;DHT22;6988;52.614;13.500;2022-10-16T03:33:16;15.10;99.90
13835;DHT22;6988;52.614;13.500;2022-10-16T03:38:08;15.00;99.90
13835;DHT22;6988;52.614;13.500;2022-10-16T03:43:01;14.90;99.90
13835;DHT22;6988;52.614;13.500;2022-10-16T03:47:52;14.90;99.90
13835;DHT22;6988;52.614;13.500;2022-10-16T03:52:44;14.80;99.90
13835;DHT22;6988;52.614;13.500;2022-10-16T03:57:36;14.70;99.90
13835;DHT22;6988;52.614;13.500;2022-10-16T04:02:29;14.70;99.90
13835;DHT22;6988;52.614;13.500;2022-10-16T04:07:20;14.60;99.90
13835;DHT22;6988;52.614;13.500;2022-10-16T04:12:12;14.60;99.90
13835;DHT22;6988;52.614;13.500;2022-10-16T04:17:04;14.60;99.90
13835;DHT22;6988;52.614;13.500;2022-10-16T04:21:57;14.60;99.90
13835;DHT22;6988;52.614;13.500;2022-10-16T04:26:48;14.60;99.90
13835;DHT22;6988;52.614;13.500;2022-10-16T04:31:40;14.50;99.90
13835;DHT22;6988;52.614;13.500;2022-10-16T04:36:32;14.50;99.90
13835;DHT22;6988;52.614;13.500;2022-10-16T04:41:25;14.50;99.90
13835;DHT22;6988;52.614;13.500;2022-10-16T04:46:16;14.50;99.90
13835;DHT22;6988;52.614;13.500;2022-10-16T04:51:08;14.50;99.90
13835;DHT22;6988;52.614;13.500;2022-10-16T04:56:00;14.50;99.90
13835;DHT22;6988;52.614;13.500;2022-10-16T05:00:53;14.40;99.90
13835;DHT22;6988;52.614;13.500;2022-10-16T05:05:46;14.30;99.90
13835;DHT22;6988;52.614;13.500;2022-10-16T05:10:38;14.30;99.90
13835;DHT22;6988;52.614;13.500;2022-10-16T05:15:30;14.20;99.90
13835;DHT22;6988;52.614;13.500;2022-10-16T05:20:24;14.20;99.90
13835;DHT22;6988;52.614;13.500;2022-10-16T05:25:16;14.20;99.90
13835;DHT22;6988;52.614;13.500;2022-10-16T05:30:09;14.10;99.90
13835;DHT22;6988;52.614;13.500;2022-10-16T05:35:01;14.10;99.90
13835;DHT22;6988;52.614;13.500;2022-10-16T05:39:54;14.10;99.90
13835;DHT22;6988;52.614;13.500;2022-10-16T05:44:46;14.00;99.90
13835;DHT22;6988;52.614;13.500;2022-10-16T05:49:38;14.00;99.90
13835;DHT22;6988;52.614;13.500;2022-10-16T05:54:29;13.90;99.90
13835;DHT22;6988;52.614;13.500;2022-10-16T05:59:22;14.00;99.90
13835;DHT22;6988;52.614;13.500;2022-10-16T06:04:14;14.00;99.90
13835;DHT22;6988;52.614;13.500;2022-10-16T06:09:06;14.00;99.90
13835;DHT22;6988;52.614;13.500;2022-10-16T06:14:00;14.10;99.90
13835;DHT22;6988;52.614;13.500;2022-10-16T06:18:58;14.10;99.90
13835;DHT22;6988;52.614;13.500;2022-10-16T06:23:50;14.20;99.90
13835;DHT22;6988;52.614;13.500;2022-10-16T06:28:43;14.20;99.90
13835;DHT22;6988;52.614;13.500;2022-10-16T06:33:35;14.20;99.90
13835;DHT22;6988;52.614;13.500;2022-10-16T06:38:30;14.30;99.90
13835;DHT22;6988;52.614;13.500;2022-10-16T06:43:22;14.30;99.90
13835;DHT22;6988;52.614;13.500;2022-10-16T06:48:13;14.40;99.90
13835;DHT22;6988;52.614;13.500;2022-10-16T06:53:05;14.50;99.90
13835;DHT22;6988;52.614;13.500;2022-10-16T06:57:58;14.60;99.90
13835;DHT22;6988;52.614;13.500;2022-10-16T07:02:50;14.60;99.90
13835;DHT22;6988;52.614;13.500;2022-10-16T07:07:41;14.70;99.90
13835;DHT22;6988;52.614;13.500;2022-10-16T07:12:33;14.80;99.90
13835;DHT22;6988;52.614;13.500;2022-10-16T07:17:26;14.90;99.90
13835;DHT22;6988;52.614;13.500;2022-10-16T07:22:18;15.00;99.90
13835;DHT22;6988;52.614;13.500;2022-10-16T07:27:09;15.10;99.90
13835;DHT22;6988;52.614;13.500;2022-10-16T07:32:02;15.10;99.90
13835;DHT22;6988;52.614;13.500;2022-10-16T07:36:55;15.30;99.90
13835;DHT22;6988;52.614;13.500;2022-10-16T07:41:47;15.40;99.90
13835;DHT22;6988;52.614;13.500;2022-10-16T07:46:38;15.50;99.90
13835;DHT22;6988;52.614;13.500;2022-10-16T07:51:30;15.60;99.90
13835;DHT22;6988;52.614;13.500;2022-10-16T07:56:23;15.70;99.90
13835;DHT22;6988;52.614;13.500;2022-10-16T08:01:16;15.80;99.90
13835;DHT22;6988;52.614;13.500;2022-10-16T08:06:09;15.90;99.90
13835;DHT22;6988;52.614;13.500;2022-10-16T08:11:01;16.00;99.90
13835;DHT22;6988;52.614;13.500;2022-10-16T08:15:55;16.00;99.90
13835;DHT22;6988;52.614;13.500;2022-10-16T08:20:47;16.10;99.90
13835;DHT22;6988;52.614;13.500;2022-10-16T08:25:39;16.00;99.90
13835;DHT22;6988;52.614;13.500;2022-10-16T08:30:32;16.20;99.90
13835;DHT22;6988;52.614;13.500;2022-10-16T08:35:25;16.20;99.90
13835;DHT22;6988;52.614;13.500;2022-10-16T08:40:22;16.30;99.90
13835;DHT22;6988;52.614;13.500;2022-10-16T08:45:24;16.40;99.90
13835;DHT22;6988;52.614;13.500;2022-10-16T08:50:29;16.40;99.90
13835;DHT22;6988;52.614;13.500;2022-10-16T08:55:30;16.60;99.90
13835;DHT22;6988;52.614;13.500;2022-10-16T09:00:26;16.80;99.90
13835;DHT22;6988;52.614;13.500;2022-10-16T09:05:25;16.90;99.90
13835;DHT22;6988;52.614;13.500;2022-10-16T09:10:40;17.00;99.90
13835;DHT22;6988;52.614;13.500;2022-10-16T09:15:43;17.40;99.90
13835;DHT22;6988;52.614;13.500;2022-10-16T09:20:49;17.70;99.90
13835;DHT22;6988;52.614;13.500;2022-10-16T09:25:47;17.90;99.90
13835;DHT22;6988;52.614;13.500;2022-10-16T09:30:40;18.10;99.90
13835;DHT22;6988;52.614;13.500;2022-10-16T09:35:35;18.40;99.90
13835;DHT22;6988;52.614;13.500;2022-10-16T09:40:32;18.50;99.90
13835;DHT22;6988;52.614;13.500;2022-10-16T09:45:25;18.60;99.90
13835;DHT22;6988;52.614;13.500;2022-10-16T09:50:23;18.60;99.90
13835;DHT22;6988;52.614;13.500;2022-10-16T09:55:18;18.70;99.90
13835;DHT22;6988;52.614;13.500;2022-10-16T10:00:16;19.10;99.90
13835;DHT22;6988;52.614;13.500;2022-10-16T10:05:18;19.10;99.90
13835;DHT22;6988;52.614;13.500;2022-10-16T10:10:20;19.10;99.90
13835;DHT22;6988;52.614;13.500;2022-10-16T10:15:15;19.40;99.90
13835;DHT22;6988;52.614;13.500;2022-10-16T10:20:21;19.30;99.90
13835;DHT22;6988;52.614;13.500;2022-10-16T10:25:20;19.30;99.90
13835;DHT22;6988;52.614;13.500;2022-10-16T10:30:36;19.20;99.90
13835;DHT22;6988;52.614;13.500;2022-10-16T10:35:39;19.00;99.90
13835;DHT22;6988;52.614;13.500;2022-10-16T10:40:45;18.90;99.90
13835;DHT22;6988;52.614;13.500;2022-10-16T10:45:46;19.00;99.90
13835;DHT22;6988;52.614;13.500;2022-10-16T10:50:43;19.10;99.90
13835;DHT22;6988;52.614;13.500;2022-10-16T10:55:44;19.20;99.90
13835;DHT22;6988;52.614;13.500;2022-10-16T11:00:50;19.30;99.90
13835;DHT22;6988;52.614;13.500;2022-10-16T11:05:52;19.70;99.90
13835;DHT22;6988;52.614;13.500;2022-10-16T11:10:52;20.00;99.90
13835;DHT22;6988;52.614;13.500;2022-10-16T11:15:51;20.00;99.90
13835;DHT22;6988;52.614;13.500;2022-10-16T11:20:51;19.90;99.90
13835;DHT22;6988;52.614;13.500;2022-10-16T11:25:48;19.80;99.90
13835;DHT22;6988;52.614;13.500;2022-10-16T11:30:44;19.80;99.90
13835;DHT22;6988;52.614;13.500;2022-10-16T11:35:46;19.70;99.90
13835;DHT22;6988;52.614;13.500;2022-10-16T11:40:45;19.70;99.90
13835;DHT22;6988;52.614;13.500;2022-10-16T11:45:42;19.70;99.90
13835;DHT22;6988;52.614;13.500;2022-10-16T11:50:40;20.10;99.90
13835;DHT22;6988;52.614;13.500;2022-10-16T11:55:41;20.40;99.90
13835;DHT22;6988;52.614;13.500;2022-10-16T12:00:39;20.80;99.90
13835;DHT22;6988;52.614;13.500;2022-10-16T12:05:58;21.20;99.90
13835;DHT22;6988;52.614;13.500;2022-10-16T12:11:20;21.40;99.90
13835;DHT22;6988;52.614;13.500;2022-10-16T12:16:23;21.00;99.90
13835;DHT22;6988;52.614;13.500;2022-10-16T12:21:17;21.20;99.90
13835;DHT22;6988;52.614;13.500;2022-10-16T12:26:10;21.30;99.90
13835;DHT22;6988;52.614;13.500;2022-10-16T12:31:04;21.30;99.90
13835;DHT22;6988;52.614;13.500;2022-10-16T12:36:00;21.60;99.90
13835;DHT22;6988;52.614;13.500;2022-10-16T12:40:58;21.80;99.90
13835;DHT22;6988;52.614;13.500;2022-10-16T12:46:00;22.20;99.90
13835;DHT22;6988;52.614;13.500;2022-10-16T12:50:54;22.20;99.90
13835;DHT22;6988;52.614;13.500;2022-10-16T12:55:52;22.10;99.90
13835;DHT22;6988;52.614;13.500;2022-10-16T13:00:57;22.00;99.90
13835;DHT22;6988;52.614;13.500;2022-10-16T13:06:04;22.00;99.90
13835;DHT22;6988;52.614;13.500;2022-10-16T13:11:11;22.00;99.90
13835;DHT22;6988;52.614;13.500;2022-10-16T13:16:17;21.90;99.90
13835;DHT22;6988;52.614;13.500;2022-10-16T13:21:28;21.90;99.90
13835;DHT22;6988;52.614;13.500;2022-10-16T13:26:35;21.80;99.90
13835;DHT22;6988;52.614;13.500;2022-10-16T13:31:32;21.80;99.90
13835;DHT22;6988;52.614;13.500;2022-10-16T13:36:26;21.60;99.90
13835;DHT22;6988;52.614;13.500;2022-10-16T13:41:20;21.70;99.90
13835;DHT22;6988;52.614;13.500;2022-10-16T13:46:15;21.60;99.90
13835;DHT22;6988;52.614;13.500;2022-10-16T13:51:13;21.50;99.90
13835;DHT22;6988;52.614;13.500;2022-10-16T13:56:10;21.50;99.90
13835;DHT22;6988;52.614;13.500;2022-10-16T14:01:04;21.50;99.90
13835;DHT22;6988;52.614;13.500;2022-10-16T14:06:12;21.40;99.90
13835;DHT22;6988;52.614;13.500;2022-10-16T14:11:07;21.50;99.90
13835;DHT22;6988;52.614;13.500;2022-10-16T14:16:02;21.30;99.90
13835;DHT22;6988;52.614;13.500;2022-10-16T14:21:03;21.30;99.90
13835;DHT22;6988;52.614;13.500;2022-10-16T14:26:12;21.30;99.90
13835;DHT22;6988;52.614;13.500;2022-10-16T14:31:25;21.10;99.90
13835;DHT22;6988;52.614;13.500;2022-10-16T14:36:18;21.00;99.90
13835;DHT22;6988;52.614;13.500;2022-10-16T14:41:13;21.00;99.90
13835;DHT22;6988;52.614;13.500;2022-10-16T14:46:13;20.90;99.90
13835;DHT22;6988;52.614;13.500;2022-10-16T14:51:09;20.80;99.90
13835;DHT22;6988;52.614;13.500;2022-10-16T14:56:06;20.80;99.90
13835;DHT22;6988;52.614;13.500;2022-10-16T15:01:00;20.50;99.90
13835;DHT22;6988;52.614;13.500;2022-10-16T15:05:52;20.30;99.90
13835;DHT22;6988;52.614;13.500;2022-10-16T15:10:44;20.20;99.90
13835;DHT22;6988;52.614;13.500;2022-10-16T15:15:37;20.10;99.90
13835;DHT22;6988;52.614;13.500;2022-10-16T15:20:34;20.00;99.90
13835;DHT22;6988;52.614;13.500;2022-10-16T15:25:33;19.80;99.90
13835;DHT22;6988;52.614;13.500;2022-10-16T15:30:28;19.70;99.90
13835;DHT22;6988;52.614;13.500;2022-10-16T15:35:20;19.50;99.90
13835;DHT22;6988;52.614;13.500;2022-10-16T15:40:13;19.30;99.90
13835;DHT22;6988;52.614;13.500;2022-10-16T15:45:06;19.20;99.90
13835;DHT22;6988;52.614;13.500;2022-10-16T15:49:59;19.00;99.90
13835;DHT22;6988;52.614;13.500;2022-10-16T15:54:51;18.90;99.90
13835;DHT22;6988;52.614;13.500;2022-10-16T15:59:44;18.70;99.90
13835;DHT22;6988;52.614;13.500;2022-10-16T16:04:36;18.50;99.90
13835;DHT22;6988;52.614;13.500;2022-10-16T16:09:28;18.40;99.90
13835;DHT22;6988;52.614;13.500;2022-10-16T16:14:20;18.20;99.90
13835;DHT22;6988;52.614;13.500;2022-10-16T16:19:13;18.00;99.90
13835;DHT22;6988;52.614;13.500;2022-10-16T16:24:07;17.80;99.90
13835;DHT22;6988;52.614;13.500;2022-10-16T16:28:59;17.70;99.90
13835;DHT22;6988;52.614;13.500;2022-10-16T16:33:51;17.50;99.90
13835;DHT22;6988;52.614;13.500;2022-10-16T16:38:45;17.30;99.90
13835;DHT22;6988;52.614;13.500;2022-10-16T16:43:37;17.10;99.90
13835;DHT22;6988;52.614;13.500;2022-10-16T16:48:29;16.90;99.90
13835;DHT22;6988;52.614;13.500;2022-10-16T16:53:20;16.70;99.90
13835;DHT22;6988;52.614;13.500;2022-10-16T16:58:14;16.50;99.90
13835;DHT22;6988;52.614;13.500;2022-10-16T17:03:06;16.30;99.90
13835;DHT22;6988;52.614;13.500;2022-10-16T17:07:57;16.20;99.90
13835;DHT22;6988;52.614;13.500;2022-10-16T17:12:49;16.00;99.90
13835;DHT22;6988;52.614;13.500;2022-10-16T17:17:42;15.90;99.90
13835;DHT22;6988;52.614;13.500;2022-10-16T17:22:34;15.80;99.90
13835;DHT22;6988;52.614;13.500;2022-10-16T17:27:25;15.60;99.90
13835;DHT22;6988;52.614;13.500;2022-10-16T17:32:17;15.50;99.90
13835;DHT22;6988;52.614;13.500;2022-10-16T17:37:11;15.40;99.90
13835;DHT22;6988;52.614;13.500;2022-10-16T17:42:03;15.30;99.90
13835;DHT22;6988;52.614;13.500;2022-10-16T17:46:54;15.10;99.90
13835;DHT22;6988;52.614;13.500;2022-10-16T17:51:49;15.00;99.90
13835;DHT22;6988;52.614;13.500;2022-10-16T17:56:43;14.80;99.90
13835;DHT22;6988;52.614;13.500;2022-10-16T18:01:36;14.60;99.90
13835;DHT22;6988;52.614;13.500;2022-10-16T18:06:31;14.50;99.90
13835;DHT22;6988;52.614;13.500;2022-10-16T18:11:23;14.40;99.90
13835;DHT22;6988;52.614;13.500;2022-10-16T18:16:16;14.30;99.90
13835;DHT22;6988;52.614;13.500;2022-10-16T18:21:11;14.20;99.90
13835;DHT22;6988;52.614;13.500;2022-10-16T18:26:04;14.00;99.90
13835;DHT22;6988;52.614;13.500;2022-10-16T18:30:58;13.90;99.90
13835;DHT22;6988;52.614;13.500;2022-10-16T18:35:52;13.70;99.90
13835;DHT22;6988;52.614;13.500;2022-10-16T18:40:44;13.70;99.90
13835;DHT22;6988;52.614;13.500;2022-10-16T18:45:36;13.60;99.90
13835;DHT22;6988;52.614;13.500;2022-10-16T18:50:28;13.50;99.90
13835;DHT22;6988;52.614;13.500;2022-10-16T18:55:21;13.40;99.90
13835;DHT22;6988;52.614;13.500;2022-10-16T19:00:14;13.20;99.90
13835;DHT22;6988;52.614;13.500;2022-10-16T19:05:07;13.10;99.90
13835;DHT22;6988;52.614;13.500;2022-10-16T19:10:00;13.00;99.90
13835;DHT22;6988;52.614;13.500;2022-10-16T19:14:53;13.00;99.90
13835;DHT22;6988;52.614;13.500;2022-10-16T19:19:45;12.90;99.90
13835;DHT22;6988;52.614;13.500;2022-10-16T19:24:37;12.80;99.90
13835;DHT22;6988;52.614;13.500;2022-10-16T19:29:29;12.90;99.90
13835;DHT22;6988;52.614;13.500;2022-10-16T19:34:22;12.70;99.90
13835;DHT22;6988;52.614;13.500;2022-10-16T19:39:15;12.70;99.90
13835;DHT22;6988;52.614;13.500;2022-10-16T19:44:08;12.60;99.90
13835;DHT22;6988;52.614;13.500;2022-10-16T19:49:05;12.60;99.90
13835;DHT22;6988;52.614;13.500;2022-10-16T19:54:01;12.60;99.90
13835;DHT22;6988;52.614;13.500;2022-10-16T19:58:55;12.60;99.90
13835;DHT22;6988;52.614;13.500;2022-10-16T20:03:48;12.50;99.90
13835;DHT22;6988;52.614;13.500;2022-10-16T20:08:41;12.50;99.90
13835;DHT22;6988;52.614;13.500;2022-10-16T20:13:36;12.50;99.90
13835;DHT22;6988;52.614;13.500;2022-10-16T20:18:28;12.50;99.90
13835;DHT22;6988;52.614;13.500;2022-10-16T20:23:21;12.60;99.90
13835;DHT22;6988;52.614;13.500;2022-10-16T20:28:16;12.50;99.90
13835;DHT22;6988;52.614;13.500;2022-10-16T20:33:11;12.40;99.90
13835;DHT22;6988;52.614;13.500;2022-10-16T20:38:03;12.40;99.90
13835;DHT22;6988;52.614;13.500;2022-10-16T20:42:54;12.40;99.90
13835;DHT22;6988;52.614;13.500;2022-10-16T20:47:46;12.30;99.90
13835;DHT22;6988;52.614;13.500;2022-10-16T20:52:40;12.30;99.90
13835;DHT22;6988;52.614;13.500;2022-10-16T20:57:31;12.30;99.90
13835;DHT22;6988;52.614;13.500;2022-10-16T21:02:23;12.50;99.90
13835;DHT22;6988;52.614;13.500;2022-10-16T21:07:15;12.10;99.90
13835;DHT22;6988;52.614;13.500;2022-10-16T21:12:09;12.00;99.90
13835;DHT22;6988;52.614;13.500;2022-10-16T21:17:00;11.90;99.90
13835;DHT22;6988;52.614;13.500;2022-10-16T21:21:52;12.00;99.90
13835;DHT22;6988;52.614;13.500;2022-10-16T21:26:44;12.00;99.90
13835;DHT22;6988;52.614;13.500;2022-10-16T21:31:37;12.00;99.90
13835;DHT22;6988;52.614;13.500;2022-10-16T21:36:30;11.90;99.90
13835;DHT22;6988;52.614;13.500;2022-10-16T21:41:24;12.00;99.90
13835;DHT22;6988;52.614;13.500;2022-10-16T22:04:37;11.90;99.90
13835;DHT22;6988;52.614;13.500;2022-10-16T22:09:29;11.90;99.90
13835;DHT22;6988;52.614;13.500;2022-10-16T22:14:21;11.90;99.90
13835;DHT22;6988;52.614;13.500;2022-10-16T22:19:14;11.90;99.90
13835;DHT22;6988;52.614;13.500;2022-10-16T22:24:08;12.00;99.90
13835;DHT22;6988;52.614;13.500;2022-10-16T22:29:01;11.90;99.90
13835;DHT22;6988;52.614;13.500;2022-10-16T22:33:54;11.90;99.90
13835;DHT22;6988;52.614;13.500;2022-10-16T22:38:46;12.00;99.90
13835;DHT22;6988;52.614;13.500;2022-10-16T22:43:40;12.00;99.90
13835;DHT22;6988;52.614;13.500;2022-10-16T22:48:34;12.00;99.90
13835;DHT22;6988;52.614;13.500;2022-10-16T22:53:27;12.00;99.90
13835;DHT22;6988;52.614;13.500;2022-10-16T22:58:19;11.80;99.90
13835;DHT22;6988;52.614;13.500;2022-10-16T23:03:13;11.70;99.90
13835;DHT22;6988;52.614;13.500;2022-10-16T23:08:04;11.60;99.90
13835;DHT22;6988;52.614;13.500;2022-10-16T23:12:57;11.60;99.90
13835;DHT22;6988;52.614;13.500;2022-10-16T23:17:49;11.60;99.90
13835;DHT22;6988;52.614;13.500;2022-10-16T23:22:42;11.60;99.90
13835;DHT22;6988;52.614;13.500;2022-10-16T23:27:34;11.80;99.90
13835;DHT22;6988;52.614;13.500;2022-10-16T23:32:25;11.80;99.90
13835;DHT22;6988;52.614;13.500;2022-10-16T23:37:17;11.80;99.90
13835;DHT22;6988;52.614;13.500;2022-10-16T23:42:10;11.80;99.90
13835;DHT22;6988;52.614;13.500;2022-10-16T23:47:02;11.90;99.90
13835;DHT22;6988;52.614;13.500;2022-10-16T23:51:54;11.90;99.90
13835;DHT22;6988;52.614;13.500;2022-10-16T23:56:45;11.90;99.90
